WEATHER DATA

YESTERDAY
Time Temp. Dewp. Hum. Wind dir Wind speed Wind gust Bar. 1h Prec. 24h Prec.
00:06 22.3 17.2 73 161 0.3 0.6 1009.3 0.0000 0.0000
00:17 22.2 17.1 73 171 0.3 0.6 1009.4 0.0000 0.0000
00:27 22.2 17.1 73 0 0.6 1009.5 0.0000 0.0000
00:37 22.2 17.1 73 135 0.3 0.6 1009.4 0.0000 0.0000
00:48 22.2 17.1 73 0 0.6 1009.3 0.0000 0.0000
00:57 22.3 17.2 73 0 0.3 1009.3 0.0000 0.0000
01:07 22.2 17.1 73 150 0.3 0.6 1009.2 0.0000 0.0000
01:17 22.2 17.1 73 0 0.6 1009.1 0.0000 0.0000
01:28 22.2 17.1 73 0 0.6 1009 0.0000 0.0000
01:37 22.2 17.1 73 0 0.6 1009 0.0000 0.0000
01:48 22.2 16.9 72 153 0.3 0.6 1009.1 0.0000 0.0000
01:58 22.3 17 72 0 0.6 1009.2 0.0000 0.0000
02:08 22.2 16.7 71 0 0.6 1009.1 0.0000 0.0000
02:18 22 16.5 71 0.3 0.6 1008.8 0.0000 0.0000
02:28 21.8 16.3 71 135 0.3 0.8 1008.7 0.0000 0.0000
02:39 21.7 16.2 71 225 0.3 0.6 1008.7 0.0000 0.0000
02:49 21.5 16 71 270 0.3 0.6 1008.6 0.0000 0.0000
02:57 21.4 15.9 71 0 0.6 1008.5 0.0000 0.0000
03:08 21.2 16 72 225 0.3 0.6 1008.3 0.0000 0.0000
03:19 21.1 15.9 72 135 0.3 0.6 1008.3 0.0000 0.0000
03:29 21 15.8 72 225 0.3 0.6 1008.2 0.0000 0.0000
03:38 21.1 15.9 72 0 0.6 1008.1 0.0000 0.0000
03:49 21.2 16 72 0 0.6 1008 0.0000 0.0000
03:59 21.3 15.8 71 0 0.3 1007.7 0.0000 0.0000
04:09 21.4 15.7 70 0 0.3 1007.6 0.0000 0.0000
04:19 21.4 15.5 69 0 0.3 1007.6 0.0000 0.0000
04:30 21.2 14.6 66 0 0.6 1007.4 0.0000 0.0000
04:39 21 14.6 67 225 0.3 0.6 1007.3 0.0000 0.0000
04:49 21 14.6 67 0 0.6 1007.5 0.0000 0.0000
05:00 21.1 14.5 66 0.3 0.6 1007.5 0.0000 0.0000
05:10 21.1 14.5 66 0 0.6 1007.6 0.0000 0.0000
05:20 21.1 14.5 66 0 0.6 1007.6 0.0000 0.0000
05:30 21 14.6 67 0 0.6 1007.7 0.0000 0.0000
05:40 21 14.6 67 0 0.6 1007.7 0.0000 0.0000
05:50 21 14.9 68 0 0.6 1007.6 0.0000 0.0000
06:00 21.3 14.7 66 0 0.3 1007.7 0.0000 0.0000
06:11 21.2 14.6 66 0 0.3 1007.7 0.0000 0.0000
06:20 21.4 14.6 65 0 0.6 1007.8 0.0000 0.0000
06:30 21.3 14.5 65 0 0.6 1007.8 0.0000 0.0000
06:40 21.4 15 67 90 0.3 0.8 1007.7 0.0000 0.0000
06:51 21.6 14.3 63 0 0.3 1007.7 0.0000 0.0000
07:01 21.5 14.6 65 0 0.3 1007.8 0.0000 0.0000
07:10 21.5 14.4 64 0 0.3 1007.8 0.0000 0.0000
07:21 21.5 14.4 64 135 0.3 0.6 1007.9 0.0000 0.0000
07:31 21.4 14.3 64 0 0.3 1007.9 0.0000 0.0000
07:41 21.4 14.3 64 0 0.6 1007.9 0.0000 0.0000
07:51 21.4 14.3 64 135 0.3 0.6 1008 0.0000 0.0000
08:01 21.4 14.6 65 0 0.3 1007.9 0.0000 0.0000
08:11 21.5 14.6 65 0 0.3 1007.9 0.0000 0.0000
08:21 21.5 14.6 65 0 0.3 1008 0.0000 0.0000
08:31 21.5 14.6 65 0 0.3 1008 0.0000 0.0000
08:41 21.6 14.5 64 0 0.3 1008 0.0000 0.0000
08:52 21.7 14.4 63 0 0.3 1007.9 0.0000 0.0000
09:02 21.9 14.5 63 0 0.3 1007.8 0.0000 0.0000
09:13 22 14.6 63 0 0.3 1007.7 0.0000 0.0000
09:24 22.2 14.8 63 0 0.3 1007.7 0.0000 0.0000
09:34 22.3 14.9 63 175 0.3 0.3 1007.5 0.0000 0.0000
09:43 22.4 14.8 62 170 0.3 0.6 1007.5 0.0000 0.0000
09:54 22.6 15 62 180 0.3 0.3 1007.4 0.0000 0.0000
10:04 22.8 14.9 61 149 0.3 0.6 1007.4 0.0000 0.0000
10:14 23 15.1 61 164 0.3 0.6 1007.3 0.0000 0.0000
10:24 23.1 15.2 61 180 0.3 0.6 1007.4 0.0000 0.0000
10:34 23.2 15.3 61 135 0.3 0.6 1007.5 0.0000 0.0000
10:44 23.3 15.4 61 123 0.3 0.6 1007.6 0.0000 0.0000
10:54 23.3 15.1 60 180 0.3 0.6 1007.6 0.0000 0.0000
11:05 23.4 15.5 61 0 0.6 1007.6 0.0000 0.0000
11:15 23.5 15.6 61 0 0.6 1007.5 0.0000 0.0000
11:25 23.5 15.6 61 0 0.6 1007.5 0.0000 0.0000
11:35 23.6 15.6 61 135 0.3 0.6 1007.5 0.0000 0.0000
11:45 23.7 15.7 61 0 0.6 1007.5 0.0000 0.0000
11:55 23.8 15.8 61 149 0.3 0.6 1007.4 0.0000 0.0000
12:05 23.9 15.9 61 0 0.3 1007.4 0.0000 0.0000
12:15 23.9 15.7 60 135 0.3 0.6 1007.3 0.0000 0.0000
12:25 23.8 15.6 60 161 0.3 0.8 1007.2 0.0000 0.0000
12:35 23.8 15.8 61 135 0.3 0.6 1006.9 0.0000 0.0000
12:46 23.8 15.8 61 0 0.6 1006.9 0.0000 0.0000
12:56 23.9 15.9 61 0 0.6 1006.8 0.0000 0.0000
13:16 23.9 15.7 60 225 0.3 0.8 1006.7 0.0000 0.0000
13:26 23.8 15.8 61 180 0.3 0.6 1006.6 0.0000 0.0000
13:37 23.7 15.7 61 270 0.3 0.6 1006.6 0.0000 0.0000
13:46 23.5 15.6 61 270 0.3 0.6 1006.5 0.0000 0.0000
13:56 23.4 15.7 62 225 0.3 0.6 1006.5 0.0000 0.0000
14:17 23.3 15.6 62 270 0.3 0.6 1006.4 0.0000 0.0000
14:28 23.2 15.5 62 225 0.3 0.6 1006.3 0.0000 0.0000
14:38 23.1 15.4 62 270 0.3 0.6 1006.3 0.0000 0.0000
14:48 23 15.3 62 239 0.3 0.8 1006.1 0.0000 0.0000
14:58 22.9 15.2 62 198 0.3 0.6 1006.2 0.0000 0.0000
15:18 22.7 15.1 62 270 0.3 0.8 1006.4 0.0000 0.0000
15:29 22.6 15 62 161 0.3 0.6 1006.4 0.0000 0.0000
15:39 22.5 14.9 62 225 0.3 0.6 1006.4 0.0000 0.0000
15:49 22.5 15.1 63 135 0.3 0.6 1006.4 0.0000 0.0000
15:58 22.4 15 63 0 0.6 1006.3 0.0000 0.0000
16:10 22.2 14.8 63 225 0.3 0.8 1006.2 0.0000 0.0000
16:21 22.2 14.8 63 0 0.6 1006.3 0.0000 0.0000
16:30 22.1 14.7 63 225 0.3 0.6 1006.3 0.0000 0.0000
16:40 22 14.4 62 225 0.3 0.6 1006.3 0.0000 0.0000
16:51 22 14.6 63 0 0.6 1006.4 0.0000 0.0000
17:01 21.9 14 61 270 0.3 0.8 1006.5 0.0000 0.0000
17:10 21.8 14 61 225 0.3 0.6 1006.5 0.0000 0.0000
17:20 21.7 13.9 61 180 0.3 0.8 1006.4 0.0000 0.0000
17:31 21.7 13.9 61 270 0.3 0.6 1006.4 0.0000 0.0000
17:41 21.6 14 62 225 0.3 0.6 1006.5 0.0000 0.0000
17:50 21.6 14 62 0.3 0.6 1006.4 0.0000 0.0000
18:01 21.6 13.5 60 270 0.3 0.8 1006.4 0.0000 0.0000
18:11 22 14.4 62 0 0.3 1006.4 0.0000 0.0000
18:21 22.4 14.3 60 0 0.6 1006.2 0.0000 0.0000
18:31 22.7 14.5 60 0 0.3 1006.1 0.0000 0.0000
18:42 22.9 14.5 59 0 0.3 1006 0.0000 0.0000
18:52 23.1 14.4 58 135 0.3 0.6 1006 0.0000 0.0000
19:02 23.3 14.6 58 0 0.6 1006 0.0000 0.0000
19:12 23.3 14 56 149 0.3 0.8 1006.1 0.0000 0.0000
19:22 23.2 13.9 56 180 0.3 0.8 1006.1 0.0000 0.0000
19:32 23.2 13.9 56 225 0.3 0.6 1006.2 0.0000 0.0000
19:42 23.2 13.9 56 0 0.6 1006.3 0.0000 0.0000
19:53 23.3 14.3 57 0 0.6 1006.4 0.0000 0.0000
20:03 23.4 14.4 57 0 0.6 1006.5 0.0000 0.0000
20:13 23.2 14.2 57 0 0.6 1006.4 0.0000 0.0000
20:23 23.3 14.6 58 90 0.3 0.6 1006.5 0.0000 0.0000
20:34 23.2 14.2 57 0 0.3 1006.5 0.0000 0.0000
20:43 23.2 14.5 58 90 0.3 0.6 1006.7 0.0000 0.0000
20:53 23 14 57 198 0.3 0.6 1006.7 0.0000 0.0000
21:03 23.1 14.4 58 135 0.3 0.6 1006.8 0.0000 0.0000
21:14 22.8 13.8 57 0 0.3 1006.8 0.0000 0.0000
21:24 22.6 14.2 59 135 0.3 0.6 1006.8 0.0000 0.0000
21:34 22.4 14 59 225 0.3 0.6 1006.9 0.0000 0.0000
21:44 22.3 14.2 60 0 0.8 1006.9 0.0000 0.0000
21:55 22.4 14.3 60 161 0.3 0.8 1006.9 0.0000 0.0000
22:04 22.2 14.1 60 135 0.3 0.6 1006.8 0.0000 0.0000
22:14 22.2 14.1 60 135 0.3 0.6 1006.8 0.0000 0.0000
22:26 22 13.9 60 135 0.3 0.6 1006.8 0.0000 0.0000
22:35 22 14.1 61 0 0.6 1006.9 0.0000 0.0000
22:55 22 14.4 62 225 0.3 0.6 1007.2 0.3030 0.3000
23:06 21.9 14.3 62 0 0.6 1007.3 0.4040 0.4000
23:16 21.9 14.3 62 210 0.3 0.6 1007.3 0.5050 0.5000
23:25 21.9 14.3 62 216 0.3 0.6 1007.2 0.7070 0.7000
23:36 22 14.4 62 225 0.3 0.6 1007.2 0.7070 0.7000
23:46 22 14.4 62 225 0.3 0.6 1007.2 0.5050 0.8000
23:56 22 14.4 62 209 0.3 0.6 1007.3 0.4040

DAY STATISTIC

2020-08-03
TEMPERATURE
AVERAGE
22.3
HIGH
23.9
12:05
LOW
21.0
03:29
PRESSURE
AVERAGE
1007.3
HIGH
1009.5
00:27
LOW
1006.0
18:42
DEWPOINT
AVERAGE
15.0
HIGH
17.2
00:06
LOW
13.5
18:01
HUMIDITY
AVERAGE
64
HIGH
73
00:06
LOW
56
19:12
WIND SPEED
AVERAGE
0.2
HIGH
0.3
00:06
WIND GUST
AVERAGE
0.6
HIGH
0.8
02:28
WIND DIRECTION
PREVAILING
SE
15.9%
N
0.0
NE
0.0
E
2.2
SE
15.9
S
11.6
SW
15.9
W
6.5
NW
0.0
PRECIPITATION
RAIN HOUR
0.7
RAIN DAY
0.8
TEMPERATURE (°C)
LOW
21.0
HIGH
23.9
AVERAGE
22.3
PRESSURE (hpa)
LOW
1006.0
HIGH
1009.5
AVERAGE
1007.3
DEVICE